sensor_id;sensor_type;location;lat;lon;timestamp;pressure;altitude;pressure_sealevel;temperature;humidity
32642;BME280;19323;56.072;9.698;2023-03-16T00:00:14;100993.16;;;25.37;37.35
32642;BME280;19323;56.072;9.698;2023-03-16T00:02:40;100997.50;;;25.38;37.15
32642;BME280;19323;56.072;9.698;2023-03-16T00:05:06;100999.34;;;25.37;36.99
32642;BME280;19323;56.072;9.698;2023-03-16T00:07:31;101005.53;;;25.38;36.88
32642;BME280;19323;56.072;9.698;2023-03-16T00:09:56;100995.66;;;25.38;36.91
32642;BME280;19323;56.072;9.698;2023-03-16T00:12:22;100998.50;;;25.37;37.13
32642;BME280;19323;56.072;9.698;2023-03-16T00:14:47;101001.19;;;25.37;36.95
32642;BME280;19323;56.072;9.698;2023-03-16T00:17:14;101001.19;;;25.37;37.11
32642;BME280;19323;56.072;9.698;2023-03-16T00:19:43;100997.63;;;25.36;36.95
32642;BME280;19323;56.072;9.698;2023-03-16T00:22:10;101001.19;;;25.37;37.01
32642;BME280;19323;56.072;9.698;2023-03-16T00:24:38;101003.00;;;25.36;36.84
32642;BME280;19323;56.072;9.698;2023-03-16T00:27:03;101006.69;;;25.35;36.83
32642;BME280;19323;56.072;9.698;2023-03-16T00:29:28;101006.69;;;25.35;36.99
32642;BME280;19323;56.072;9.698;2023-03-16T00:31:54;101008.53;;;25.35;37.01
32642;BME280;19323;56.072;9.698;2023-03-16T00:34:19;101007.53;;;25.36;36.79
32642;BME280;19323;56.072;9.698;2023-03-16T00:36:44;101012.06;;;25.35;36.84
32642;BME280;19323;56.072;9.698;2023-03-16T00:39:09;101013.03;;;25.34;36.77
32642;BME280;19323;56.072;9.698;2023-03-16T00:41:35;101007.84;;;25.33;36.84
32642;BME280;19323;56.072;9.698;2023-03-16T00:44:02;101009.69;;;25.32;36.85
32642;BME280;19323;56.072;9.698;2023-03-16T00:46:27;101019.53;;;25.32;36.78
32642;BME280;19323;56.072;9.698;2023-03-16T00:48:52;101018.72;;;25.31;36.74
32642;BME280;19323;56.072;9.698;2023-03-16T00:51:17;101018.84;;;25.29;36.95
32642;BME280;19323;56.072;9.698;2023-03-16T00:53:43;101018.84;;;25.29;36.86
32642;BME280;19323;56.072;9.698;2023-03-16T00:56:09;101015.47;;;25.27;36.77
32642;BME280;19323;56.072;9.698;2023-03-16T00:58:35;101016.34;;;25.28;36.87
32642;BME280;19323;56.072;9.698;2023-03-16T01:01:01;101021.69;;;25.28;36.67
32642;BME280;19323;56.072;9.698;2023-03-16T01:03:27;101013.81;;;25.26;36.81
32642;BME280;19323;56.072;9.698;2023-03-16T01:05:52;101012.13;;;25.25;36.63
32642;BME280;19323;56.072;9.698;2023-03-16T01:08:17;101021.00;;;25.26;36.75
32642;BME280;19323;56.072;9.698;2023-03-16T01:10:43;101014.81;;;25.25;36.79
32642;BME280;19323;56.072;9.698;2023-03-16T01:13:09;101013.09;;;25.24;36.74
32642;BME280;19323;56.072;9.698;2023-03-16T01:15:34;101018.63;;;25.23;36.83
32642;BME280;19323;56.072;9.698;2023-03-16T01:17:59;101013.25;;;25.23;36.65
32642;BME280;19323;56.072;9.698;2023-03-16T01:20:24;101011.31;;;25.15;36.86
32642;BME280;19323;56.072;9.698;2023-03-16T01:22:50;101020.59;;;25.21;36.65
32642;BME280;19323;56.072;9.698;2023-03-16T01:25:15;101019.75;;;25.20;36.89
32642;BME280;19323;56.072;9.698;2023-03-16T01:27:42;101015.41;;;25.19;36.60
32642;BME280;19323;56.072;9.698;2023-03-16T01:30:07;101018.09;;;25.19;36.92
32642;BME280;19323;56.072;9.698;2023-03-16T01:32:36;101014.41;;;25.20;36.72
32642;BME280;19323;56.072;9.698;2023-03-16T01:35:01;101017.91;;;25.21;36.69
32642;BME280;19323;56.072;9.698;2023-03-16T01:37:26;101024.97;;;25.22;36.83
32642;BME280;19323;56.072;9.698;2023-03-16T01:39:51;101023.44;;;25.19;36.70
32642;BME280;19323;56.072;9.698;2023-03-16T01:42:17;101019.03;;;25.18;36.81
32642;BME280;19323;56.072;9.698;2023-03-16T01:44:49;101023.69;;;25.16;36.71
32642;BME280;19323;56.072;9.698;2023-03-16T01:47:15;101029.06;;;25.16;36.67
32642;BME280;19323;56.072;9.698;2023-03-16T01:49:40;101029.06;;;25.16;36.76
32642;BME280;19323;56.072;9.698;2023-03-16T01:52:06;101022.03;;;25.15;36.67
32642;BME280;19323;56.072;9.698;2023-03-16T01:54:36;101029.06;;;25.16;36.79
32642;BME280;19323;56.072;9.698;2023-03-16T01:59:40;101029.06;;;25.16;36.74
32642;BME280;19323;56.072;9.698;2023-03-16T02:02:07;101019.19;;;25.17;36.77
32642;BME280;19323;56.072;9.698;2023-03-16T02:04:39;101019.34;;;25.15;36.57
32642;BME280;19323;56.072;9.698;2023-03-16T02:07:06;101023.69;;;25.16;36.46
32642;BME280;19323;56.072;9.698;2023-03-16T02:09:33;101018.34;;;25.16;36.54
32642;BME280;19323;56.072;9.698;2023-03-16T02:11:59;101021.88;;;25.17;36.60
32642;BME280;19323;56.072;9.698;2023-03-16T02:14:25;101021.03;;;25.16;36.48
32642;BME280;19323;56.072;9.698;2023-03-16T02:16:50;101024.56;;;25.17;36.59
32642;BME280;19323;56.072;9.698;2023-03-16T02:19:19;101019.19;;;25.17;36.53
32642;BME280;19323;56.072;9.698;2023-03-16T02:21:50;101023.69;;;25.16;36.62
32642;BME280;19323;56.072;9.698;2023-03-16T02:24:19;101029.06;;;25.16;36.62
32642;BME280;19323;56.072;9.698;2023-03-16T02:26:47;101026.38;;;25.16;36.51
32642;BME280;19323;56.072;9.698;2023-03-16T02:29:27;101032.75;;;25.15;36.47
32642;BME280;19323;56.072;9.698;2023-03-16T02:31:56;101030.06;;;25.15;36.42
32642;BME280;19323;56.072;9.698;2023-03-16T02:34:22;101032.88;;;25.14;36.40
32642;BME280;19323;56.072;9.698;2023-03-16T02:36:47;101036.41;;;25.14;36.51
32642;BME280;19323;56.072;9.698;2023-03-16T02:39:13;101027.66;;;25.12;36.33
32642;BME280;19323;56.072;9.698;2023-03-16T02:41:38;101031.03;;;25.14;36.49
32642;BME280;19323;56.072;9.698;2023-03-16T02:44:13;101030.22;;;25.14;36.45
32642;BME280;19323;56.072;9.698;2023-03-16T02:46:40;101025.69;;;25.14;36.47
32642;BME280;19323;56.072;9.698;2023-03-16T02:51:45;101026.69;;;25.13;36.32
32642;BME280;19323;56.072;9.698;2023-03-16T02:54:10;101022.31;;;25.12;36.08
32642;BME280;19323;56.072;9.698;2023-03-16T02:56:35;101018.94;;;25.10;36.19
32642;BME280;19323;56.072;9.698;2023-03-16T02:59:00;101021.59;;;25.10;36.27
32642;BME280;19323;56.072;9.698;2023-03-16T03:01:25;101029.66;;;25.10;36.30
32642;BME280;19323;56.072;9.698;2023-03-16T03:03:51;101031.34;;;25.11;36.24
32642;BME280;19323;56.072;9.698;2023-03-16T03:06:16;101026.84;;;25.12;36.32
32642;BME280;19323;56.072;9.698;2023-03-16T03:08:41;101029.50;;;25.12;36.33
32642;BME280;19323;56.072;9.698;2023-03-16T03:11:06;101023.31;;;25.11;36.25
32642;BME280;19323;56.072;9.698;2023-03-16T03:13:32;101015.28;;;25.11;36.13
32642;BME280;19323;56.072;9.698;2023-03-16T03:15:57;101022.31;;;25.12;36.08
32642;BME280;19323;56.072;9.698;2023-03-16T03:18:22;101025.84;;;25.13;36.12
32642;BME280;19323;56.072;9.698;2023-03-16T03:20:50;101034.03;;;25.11;36.12
32642;BME280;19323;56.072;9.698;2023-03-16T03:23:15;101029.66;;;25.10;36.23
32642;BME280;19323;56.072;9.698;2023-03-16T03:25:41;101030.66;;;25.09;36.14
32642;BME280;19323;56.072;9.698;2023-03-16T03:28:06;101030.81;;;25.07;36.17
32642;BME280;19323;56.072;9.698;2023-03-16T03:30:31;101035.31;;;25.07;36.24
32642;BME280;19323;56.072;9.698;2023-03-16T03:32:56;101039.72;;;25.08;36.26
32642;BME280;19323;56.072;9.698;2023-03-16T03:35:22;101035.31;;;25.07;36.32
32642;BME280;19323;56.072;9.698;2023-03-16T03:37:47;101034.50;;;25.06;36.18
32642;BME280;19323;56.072;9.698;2023-03-16T03:40:14;101043.50;;;25.05;36.22
32642;BME280;19323;56.072;9.698;2023-03-16T03:42:40;101034.63;;;25.05;36.13
32642;BME280;19323;56.072;9.698;2023-03-16T03:45:06;101031.09;;;25.04;36.26
32642;BME280;19323;56.072;9.698;2023-03-16T03:47:31;101035.63;;;25.04;36.05
32642;BME280;19323;56.072;9.698;2023-03-16T03:49:57;101036.59;;;25.03;36.19
32642;BME280;19323;56.072;9.698;2023-03-16T03:52:22;101034.06;;;25.01;36.08
32642;BME280;19323;56.072;9.698;2023-03-16T03:54:47;101033.22;;;25.01;36.24
32642;BME280;19323;56.072;9.698;2023-03-16T03:57:12;101038.59;;;25.01;35.97
32642;BME280;19323;56.072;9.698;2023-03-16T03:59:37;101049.31;;;25.01;36.28
32642;BME280;19323;56.072;9.698;2023-03-16T04:02:08;101043.94;;;25.01;36.32
32642;BME280;19323;56.072;9.698;2023-03-16T04:04:33;101045.78;;;25.00;36.21
32642;BME280;19323;56.072;9.698;2023-03-16T04:06:58;101037.75;;;25.00;36.03
32642;BME280;19323;56.072;9.698;2023-03-16T04:09:24;101045.78;;;25.00;35.91
32642;BME280;19323;56.072;9.698;2023-03-16T04:11:49;101041.44;;;24.99;36.04
32642;BME280;19323;56.072;9.698;2023-03-16T04:14:14;101038.75;;;24.99;35.88
32642;BME280;19323;56.072;9.698;2023-03-16T04:16:40;101031.00;;;24.96;35.85
32642;BME280;19323;56.072;9.698;2023-03-16T04:19:05;101036.22;;;24.98;35.97
32642;BME280;19323;56.072;9.698;2023-03-16T04:21:30;101039.88;;;24.97;35.78
32642;BME280;19323;56.072;9.698;2023-03-16T04:23:55;101034.69;;;24.95;35.83
32642;BME280;19323;56.072;9.698;2023-03-16T04:26:21;101030.16;;;24.96;35.59
32642;BME280;19323;56.072;9.698;2023-03-16T04:28:46;101032.00;;;24.95;35.36
32642;BME280;19323;56.072;9.698;2023-03-16T04:31:11;101023.97;;;24.95;35.22
32642;BME280;19323;56.072;9.698;2023-03-16T04:33:37;101025.94;;;24.93;35.19
32642;BME280;19323;56.072;9.698;2023-03-16T04:36:03;101034.00;;;24.93;35.03
32642;BME280;19323;56.072;9.698;2023-03-16T04:38:29;101033.16;;;24.93;34.96
32642;BME280;19323;56.072;9.698;2023-03-16T04:40:55;101032.28;;;24.92;35.02
32642;BME280;19323;56.072;9.698;2023-03-16T04:43:20;101035.13;;;24.91;34.73
32642;BME280;19323;56.072;9.698;2023-03-16T04:45:46;101035.13;;;24.91;34.74
32642;BME280;19323;56.072;9.698;2023-03-16T04:48:12;101035.97;;;24.91;34.42
32642;BME280;19323;56.072;9.698;2023-03-16T04:50:37;101025.38;;;24.90;34.48
32642;BME280;19323;56.072;9.698;2023-03-16T04:53:02;101032.59;;;24.89;34.37
32642;BME280;19323;56.072;9.698;2023-03-16T04:55:28;101032.72;;;24.87;34.09
32642;BME280;19323;56.072;9.698;2023-03-16T04:57:53;101036.41;;;24.86;33.98
32642;BME280;19323;56.072;9.698;2023-03-16T05:00:19;101037.38;;;24.85;34.05
32642;BME280;19323;56.072;9.698;2023-03-16T05:02:48;101045.44;;;24.85;33.84
32642;BME280;19323;56.072;9.698;2023-03-16T05:05:13;101045.59;;;24.84;33.78
32642;BME280;19323;56.072;9.698;2023-03-16T05:07:39;101051.78;;;24.84;34.08
32642;BME280;19323;56.072;9.698;2023-03-16T05:10:05;101051.78;;;24.84;33.87
32642;BME280;19323;56.072;9.698;2023-03-16T05:12:31;101059.81;;;24.84;33.88
32642;BME280;19323;56.072;9.698;2023-03-16T05:14:56;101056.16;;;24.85;33.86
32642;BME280;19323;56.072;9.698;2023-03-16T05:17:21;101050.66;;;24.87;34.03
32642;BME280;19323;56.072;9.698;2023-03-16T05:19:46;101052.31;;;24.88;33.83
32642;BME280;19323;56.072;9.698;2023-03-16T05:22:12;101058.38;;;24.90;33.84
32642;BME280;19323;56.072;9.698;2023-03-16T05:24:37;101063.59;;;24.92;33.63
32642;BME280;19323;56.072;9.698;2023-03-16T05:27:02;101060.91;;;24.92;33.72
32642;BME280;19323;56.072;9.698;2023-03-16T05:29:27;101065.31;;;24.93;33.56
32642;BME280;19323;56.072;9.698;2023-03-16T05:31:55;101059.94;;;24.93;33.72
32642;BME280;19323;56.072;9.698;2023-03-16T05:34:20;101059.94;;;24.93;33.46
32642;BME280;19323;56.072;9.698;2023-03-16T05:36:45;101056.25;;;24.94;33.43
32642;BME280;19323;56.072;9.698;2023-03-16T05:39:10;101061.63;;;24.94;33.32
32642;BME280;19323;56.072;9.698;2023-03-16T05:41:35;101057.28;;;24.93;33.28
32642;BME280;19323;56.072;9.698;2023-03-16T05:44:01;101058.09;;;24.93;33.24
32642;BME280;19323;56.072;9.698;2023-03-16T05:46:26;101064.31;;;24.94;33.21
32642;BME280;19323;56.072;9.698;2023-03-16T05:48:51;101082.22;;;24.93;33.04
32642;BME280;19323;56.072;9.698;2023-03-16T05:51:16;101065.31;;;24.93;33.09
32642;BME280;19323;56.072;9.698;2023-03-16T05:53:42;101061.75;;;24.92;33.12
32642;BME280;19323;56.072;9.698;2023-03-16T05:56:10;101049.22;;;24.93;33.04
32642;BME280;19323;56.072;9.698;2023-03-16T05:58:36;101059.06;;;24.92;32.78
32642;BME280;19323;56.072;9.698;2023-03-16T06:01:01;101052.88;;;24.92;32.98
32642;BME280;19323;56.072;9.698;2023-03-16T06:03:26;101040.50;;;24.91;32.96
32642;BME280;19323;56.072;9.698;2023-03-16T06:05:51;101044.97;;;24.90;32.92
32642;BME280;19323;56.072;9.698;2023-03-16T06:08:17;101044.97;;;24.90;32.81
32642;BME280;19323;56.072;9.698;2023-03-16T06:10:42;101032.59;;;24.89;32.75
32642;BME280;19323;56.072;9.698;2023-03-16T06:13:08;101038.78;;;24.90;32.86
32642;BME280;19323;56.072;9.698;2023-03-16T06:15:36;101068.25;;;24.90;32.89
32642;BME280;19323;56.072;9.698;2023-03-16T06:18:01;101072.78;;;24.89;32.96
32642;BME280;19323;56.072;9.698;2023-03-16T06:20:26;101057.53;;;24.90;32.96
32642;BME280;19323;56.072;9.698;2023-03-16T06:22:51;101076.16;;;24.91;32.95
32642;BME280;19323;56.072;9.698;2023-03-16T06:25:17;101056.56;;;24.91;32.97
32642;BME280;19323;56.072;9.698;2023-03-16T06:27:42;101062.75;;;24.91;33.00
32642;BME280;19323;56.072;9.698;2023-03-16T06:30:08;101066.41;;;24.90;33.00
32642;BME280;19323;56.072;9.698;2023-03-16T06:32:34;101059.25;;;24.91;33.02
32642;BME280;19323;56.072;9.698;2023-03-16T06:35:00;101057.53;;;24.90;33.04
32642;BME280;19323;56.072;9.698;2023-03-16T06:37:27;101061.06;;;24.90;33.00
32642;BME280;19323;56.072;9.698;2023-03-16T06:39:52;101069.28;;;24.88;33.17
32642;BME280;19323;56.072;9.698;2023-03-16T06:42:17;101041.59;;;24.88;33.10
32642;BME280;19323;56.072;9.698;2023-03-16T06:44:43;101056.84;;;24.87;33.06
32642;BME280;19323;56.072;9.698;2023-03-16T06:47:08;101052.31;;;24.88;33.30
32642;BME280;19323;56.072;9.698;2023-03-16T06:49:34;101053.19;;;24.88;33.24
32642;BME280;19323;56.072;9.698;2023-03-16T06:51:59;101042.47;;;24.88;33.25
32642;BME280;19323;56.072;9.698;2023-03-16T06:54:25;101038.09;;;24.87;33.31
32642;BME280;19323;56.072;9.698;2023-03-16T06:56:51;101024.69;;;24.87;33.49
32642;BME280;19323;56.072;9.698;2023-03-16T06:59:16;101024.69;;;24.87;33.49
32642;BME280;19323;56.072;9.698;2023-03-16T07:01:41;101044.28;;;24.88;33.43
32642;BME280;19323;56.072;9.698;2023-03-16T07:04:08;101057.69;;;24.88;33.63
32642;BME280;19323;56.072;9.698;2023-03-16T07:06:34;101035.41;;;24.87;33.72
32642;BME280;19323;56.072;9.698;2023-03-16T07:08:59;101030.88;;;24.88;33.49
32642;BME280;19323;56.072;9.698;2023-03-16T07:11:25;101062.06;;;24.89;33.58
32642;BME280;19323;56.072;9.698;2023-03-16T07:13:50;101071.78;;;24.90;33.82
32642;BME280;19323;56.072;9.698;2023-03-16T07:16:16;101075.31;;;24.91;33.67
32642;BME280;19323;56.072;9.698;2023-03-16T07:18:41;101077.13;;;24.90;33.74
32642;BME280;19323;56.072;9.698;2023-03-16T07:21:08;101087.84;;;24.90;33.85
32642;BME280;19323;56.072;9.698;2023-03-16T07:23:33;101096.75;;;24.91;33.89
32642;BME280;19323;56.072;9.698;2023-03-16T07:25:59;101070.94;;;24.90;33.91
32642;BME280;19323;56.072;9.698;2023-03-16T07:28:25;101094.09;;;24.91;33.81
32642;BME280;19323;56.072;9.698;2023-03-16T07:30:50;101092.25;;;24.91;33.86
32642;BME280;19323;56.072;9.698;2023-03-16T07:33:16;101071.78;;;24.90;33.98
32642;BME280;19323;56.072;9.698;2023-03-16T07:35:41;101076.28;;;24.90;33.83
32642;BME280;19323;56.072;9.698;2023-03-16T07:38:06;101093.22;;;24.90;33.96
32642;BME280;19323;56.072;9.698;2023-03-16T07:40:34;101087.84;;;24.90;33.91
32642;BME280;19323;56.072;9.698;2023-03-16T07:42:59;101096.75;;;24.91;34.05
32642;BME280;19323;56.072;9.698;2023-03-16T07:45:25;101103.78;;;24.92;34.08
32642;BME280;19323;56.072;9.698;2023-03-16T07:47:50;101095.75;;;24.92;33.90
32642;BME280;19323;56.072;9.698;2023-03-16T07:50:15;101090.25;;;24.93;33.89
32642;BME280;19323;56.072;9.698;2023-03-16T07:52:43;101097.47;;;24.93;33.87
32642;BME280;19323;56.072;9.698;2023-03-16T07:55:08;101092.78;;;24.95;33.92
32642;BME280;19323;56.072;9.698;2023-03-16T07:57:33;101091.94;;;24.94;33.80
32642;BME280;19323;56.072;9.698;2023-03-16T07:59:59;101106.16;;;24.95;33.92
32642;BME280;19323;56.072;9.698;2023-03-16T08:02:24;101096.31;;;24.95;33.95
32642;BME280;19323;56.072;9.698;2023-03-16T08:04:49;101101.69;;;24.95;34.00
32642;BME280;19323;56.072;9.698;2023-03-16T08:07:15;101106.16;;;24.95;33.94
32642;BME280;19323;56.072;9.698;2023-03-16T08:09:41;101103.50;;;24.95;33.73
32642;BME280;19323;56.072;9.698;2023-03-16T08:12:06;101102.50;;;24.96;34.03
32642;BME280;19323;56.072;9.698;2023-03-16T08:14:32;101106.16;;;24.95;33.99
32642;BME280;19323;56.072;9.698;2023-03-16T08:16:58;101100.81;;;24.95;33.94
32642;BME280;19323;56.072;9.698;2023-03-16T08:19:23;101099.00;;;24.95;34.10
32642;BME280;19323;56.072;9.698;2023-03-16T08:21:49;101092.63;;;24.96;34.14
32642;BME280;19323;56.072;9.698;2023-03-16T08:24:15;101082.75;;;24.97;34.09
32642;BME280;19323;56.072;9.698;2023-03-16T08:26:40;101083.63;;;24.97;33.98
32642;BME280;19323;56.072;9.698;2023-03-16T08:29:05;101083.63;;;24.97;33.86
32642;BME280;19323;56.072;9.698;2023-03-16T08:31:30;101083.63;;;24.97;34.01
32642;BME280;19323;56.072;9.698;2023-03-16T08:33:59;101089.81;;;24.98;34.15
32642;BME280;19323;56.072;9.698;2023-03-16T08:36:24;101071.06;;;24.98;33.95
32642;BME280;19323;56.072;9.698;2023-03-16T08:38:50;101031.78;;;24.79;33.81
32642;BME280;19323;56.072;9.698;2023-03-16T08:41:16;101081.06;;;24.96;34.14
32642;BME280;19323;56.072;9.698;2023-03-16T08:43:41;101079.38;;;24.95;34.19
32642;BME280;19323;56.072;9.698;2023-03-16T08:46:06;101071.19;;;24.96;34.04
32642;BME280;19323;56.072;9.698;2023-03-16T08:48:32;101067.53;;;24.97;34.02
32642;BME280;19323;56.072;9.698;2023-03-16T08:51:00;101057.66;;;24.98;34.10
32642;BME280;19323;56.072;9.698;2023-03-16T08:53:25;101063.84;;;24.98;34.12
32642;BME280;19323;56.072;9.698;2023-03-16T08:55:52;101070.06;;;24.99;33.86
32642;BME280;19323;56.072;9.698;2023-03-16T08:58:17;101066.41;;;25.00;34.08
32642;BME280;19323;56.072;9.698;2023-03-16T09:00:42;101071.75;;;25.00;33.94
32642;BME280;19323;56.072;9.698;2023-03-16T09:03:07;101078.78;;;25.01;33.87
32642;BME280;19323;56.072;9.698;2023-03-16T09:05:34;101077.81;;;25.02;34.00
32642;BME280;19323;56.072;9.698;2023-03-16T09:07:59;101071.44;;;25.03;33.95
32642;BME280;19323;56.072;9.698;2023-03-16T09:10:25;101072.28;;;25.03;33.84
32642;BME280;19323;56.072;9.698;2023-03-16T09:12:51;101073.16;;;25.04;33.85
32642;BME280;19323;56.072;9.698;2023-03-16T09:15:18;101076.66;;;25.04;33.84
32642;BME280;19323;56.072;9.698;2023-03-16T09:17:43;101067.78;;;25.04;33.91
32642;BME280;19323;56.072;9.698;2023-03-16T09:20:09;101061.44;;;25.05;34.02
32642;BME280;19323;56.072;9.698;2023-03-16T09:22:36;101068.50;;;25.06;33.83
32642;BME280;19323;56.072;9.698;2023-03-16T09:25:05;101081.88;;;25.06;33.84
32642;BME280;19323;56.072;9.698;2023-03-16T09:27:31;101077.38;;;25.06;33.80
32642;BME280;19323;56.072;9.698;2023-03-16T09:29:57;101071.16;;;25.06;33.90
32642;BME280;19323;56.072;9.698;2023-03-16T09:32:23;101069.31;;;25.06;33.95
32642;BME280;19323;56.072;9.698;2023-03-16T09:34:48;101065.81;;;25.06;33.76
32642;BME280;19323;56.072;9.698;2023-03-16T09:37:13;101068.31;;;25.07;33.77
32642;BME280;19323;56.072;9.698;2023-03-16T09:39:40;101070.16;;;25.07;33.89
32642;BME280;19323;56.072;9.698;2023-03-16T09:42:13;101063.28;;;25.04;33.71
32642;BME280;19323;56.072;9.698;2023-03-16T09:44:49;101064.09;;;25.05;33.84
32642;BME280;19323;56.072;9.698;2023-03-16T09:47:19;101068.63;;;25.04;33.97
32642;BME280;19323;56.072;9.698;2023-03-16T09:49:48;101061.44;;;25.05;33.74
32642;BME280;19323;56.072;9.698;2023-03-16T09:52:18;101058.75;;;25.05;33.85
32642;BME280;19323;56.072;9.698;2023-03-16T09:54:48;101051.53;;;25.05;33.82
32642;BME280;19323;56.072;9.698;2023-03-16T09:57:27;101052.41;;;25.06;33.74
32642;BME280;19323;56.072;9.698;2023-03-16T09:59:54;101050.56;;;25.06;33.80
32642;BME280;19323;56.072;9.698;2023-03-16T10:05:07;101053.38;;;25.05;33.93
32642;BME280;19323;56.072;9.698;2023-03-16T10:10:26;101042.81;;;25.03;33.99
32642;BME280;19323;56.072;9.698;2023-03-16T10:12:56;101033.94;;;25.03;33.81
32642;BME280;19323;56.072;9.698;2023-03-16T10:15:24;101019.00;;;25.00;33.87
32642;BME280;19323;56.072;9.698;2023-03-16T10:18:13;101007.44;;;25.00;33.87
32642;BME280;19323;56.072;9.698;2023-03-16T10:20:39;101011.97;;;24.99;33.93
32642;BME280;19323;56.072;9.698;2023-03-16T10:23:13;101018.28;;;24.98;33.90
32642;BME280;19323;56.072;9.698;2023-03-16T10:25:42;101032.84;;;24.96;33.91
32642;BME280;19323;56.072;9.698;2023-03-16T10:28:12;101034.81;;;24.94;34.08
32642;BME280;19323;56.072;9.698;2023-03-16T10:30:39;101027.78;;;24.93;34.06
32642;BME280;19323;56.072;9.698;2023-03-16T10:35:57;101032.59;;;24.89;34.16
32642;BME280;19323;56.072;9.698;2023-03-16T10:38:45;101026.53;;;24.87;34.24
32642;BME280;19323;56.072;9.698;2023-03-16T10:43:52;101019.66;;;24.84;34.46
32642;BME280;19323;56.072;9.698;2023-03-16T10:46:19;101020.47;;;24.85;34.53
32642;BME280;19323;56.072;9.698;2023-03-16T10:48:52;101027.50;;;24.86;34.45
32642;BME280;19323;56.072;9.698;2023-03-16T10:51:18;101019.47;;;24.86;34.50
32642;BME280;19323;56.072;9.698;2023-03-16T10:53:46;101012.31;;;24.86;34.57
32642;BME280;19323;56.072;9.698;2023-03-16T10:56:17;101011.28;;;24.87;34.61
32642;BME280;19323;56.072;9.698;2023-03-16T10:58:43;101004.97;;;24.88;34.48
32642;BME280;19323;56.072;9.698;2023-03-16T11:01:31;100993.25;;;24.90;34.54
32642;BME280;19323;56.072;9.698;2023-03-16T11:03:56;101004.78;;;24.90;34.49
32642;BME280;19323;56.072;9.698;2023-03-16T11:06:22;101004.66;;;24.92;34.46
32642;BME280;19323;56.072;9.698;2023-03-16T11:08:48;101007.34;;;24.92;34.83
32642;BME280;19323;56.072;9.698;2023-03-16T11:11:31;101008.16;;;24.92;34.61
32642;BME280;19323;56.072;9.698;2023-03-16T11:13:58;101011.72;;;24.93;34.65
32642;BME280;19323;56.072;9.698;2023-03-16T11:16:27;101001.84;;;24.93;34.66
32642;BME280;19323;56.072;9.698;2023-03-16T11:18:58;100999.69;;;24.97;34.87
32642;BME280;19323;56.072;9.698;2023-03-16T11:21:28;101002.22;;;24.98;34.79
32642;BME280;19323;56.072;9.698;2023-03-16T11:23:55;101004.59;;;25.01;34.64
32642;BME280;19323;56.072;9.698;2023-03-16T11:26:25;101004.31;;;25.04;34.74
32642;BME280;19323;56.072;9.698;2023-03-16T11:28:56;101000.63;;;25.05;34.70
32642;BME280;19323;56.072;9.698;2023-03-16T11:31:35;100985.09;;;25.09;34.84
32642;BME280;19323;56.072;9.698;2023-03-16T11:34:08;100972.53;;;25.09;34.60
32642;BME280;19323;56.072;9.698;2023-03-16T11:36:41;100969.56;;;25.13;34.78
32642;BME280;19323;56.072;9.698;2023-03-16T11:46:56;100944.69;;;25.20;34.80
32642;BME280;19323;56.072;9.698;2023-03-16T11:49:41;100938.19;;;25.23;34.98
32642;BME280;19323;56.072;9.698;2023-03-16T11:52:24;100945.09;;;25.25;34.89
32642;BME280;19323;56.072;9.698;2023-03-16T12:10:28;100926.72;;;25.31;35.15
32642;BME280;19323;56.072;9.698;2023-03-16T12:18:01;100922.19;;;25.31;35.14
32642;BME280;19323;56.072;9.698;2023-03-16T12:23:19;100921.22;;;25.32;35.13
32642;BME280;19323;56.072;9.698;2023-03-16T12:25:47;100905.97;;;25.33;35.11
32642;BME280;19323;56.072;9.698;2023-03-16T12:28:16;100907.63;;;25.34;35.00
32642;BME280;19323;56.072;9.698;2023-03-16T12:38:55;100884.19;;;25.36;35.28
32642;BME280;19323;56.072;9.698;2023-03-16T12:41:45;100869.81;;;25.37;35.24
32642;BME280;19323;56.072;9.698;2023-03-16T12:44:18;100870.63;;;25.37;35.08
32642;BME280;19323;56.072;9.698;2023-03-16T12:46:51;100875.16;;;25.37;34.97
32642;BME280;19323;56.072;9.698;2023-03-16T12:49:22;100867.13;;;25.37;35.13
32642;BME280;19323;56.072;9.698;2023-03-16T12:51:56;100851.88;;;25.37;35.20
32642;BME280;19323;56.072;9.698;2023-03-16T12:54:23;100855.38;;;25.38;35.30
32642;BME280;19323;56.072;9.698;2023-03-16T12:56:49;100855.53;;;25.36;35.09
32642;BME280;19323;56.072;9.698;2023-03-16T12:59:16;100855.25;;;25.39;35.28
32642;BME280;19323;56.072;9.698;2023-03-16T13:01:42;100854.41;;;25.39;35.25
32642;BME280;19323;56.072;9.698;2023-03-16T13:06:36;100852.56;;;25.39;35.21
32642;BME280;19323;56.072;9.698;2023-03-16T13:09:06;100852.56;;;25.39;35.11
32642;BME280;19323;56.072;9.698;2023-03-16T13:11:39;100832.97;;;25.39;35.19
32642;BME280;19323;56.072;9.698;2023-03-16T13:14:05;100831.09;;;25.39;35.21
32642;BME280;19323;56.072;9.698;2023-03-16T13:16:37;100818.53;;;25.40;35.18
32642;BME280;19323;56.072;9.698;2023-03-16T13:21:46;100811.50;;;25.39;35.25
32642;BME280;19323;56.072;9.698;2023-03-16T13:24:33;100798.94;;;25.39;35.21
32642;BME280;19323;56.072;9.698;2023-03-16T13:27:01;100792.75;;;25.39;35.17
32642;BME280;19323;56.072;9.698;2023-03-16T13:29:28;100784.69;;;25.39;35.01
32642;BME280;19323;56.072;9.698;2023-03-16T13:31:55;100798.09;;;25.39;35.19
32642;BME280;19323;56.072;9.698;2023-03-16T13:34:32;100790.06;;;25.39;35.29
32642;BME280;19323;56.072;9.698;2023-03-16T13:36:59;100789.03;;;25.40;35.15
32642;BME280;19323;56.072;9.698;2023-03-16T13:39:28;100792.75;;;25.39;35.29
32642;BME280;19323;56.072;9.698;2023-03-16T13:41:54;100789.19;;;25.38;35.22
32642;BME280;19323;56.072;9.698;2023-03-16T13:44:21;100788.34;;;25.38;35.17
32642;BME280;19323;56.072;9.698;2023-03-16T13:46:47;100789.38;;;25.37;35.33
32642;BME280;19323;56.072;9.698;2023-03-16T13:49:13;100792.03;;;25.37;35.16